Time,TemperatureF,DewpointF,PressureIn,WindDirection,WindDirectionDegrees,WindSpeedMPH,WindSpeedGustMPH,Humidity,HourlyPrecipIn,Conditions,Clouds,dailyrainin,SoftwareType,DateUTC
2013-10-15 00:00:00,49.7,42.8,30.18,NW,318,0.0,0.0,77,0.00,,,0.00,VWS V14.01,2013-10-15 04:00:00,
2013-10-15 00:01:00,49.7,42.8,30.18,NW,318,0.0,0.0,77,0.00,,,0.00,VWS V14.01,2013-10-15 04:01:00,
2013-10-15 00:02:00,49.6,42.7,30.18,NW,318,0.0,0.0,77,0.00,,,0.00,VWS V14.01,2013-10-15 04:02:00,
2013-10-15 00:03:00,49.6,42.7,30.18,NW,318,0.0,0.0,77,0.00,,,0.00,VWS V14.01,2013-10-15 04:03:00,
2013-10-15 00:05:00,49.6,42.7,30.18,NW,318,0.0,0.0,77,0.00,,,0.00,VWS V14.01,2013-10-15 04:05:00,
2013-10-15 00:09:00,49.4,42.5,30.18,NW,318,0.0,0.0,77,0.00,,,0.00,VWS V14.01,2013-10-15 04:09:00,
2013-10-15 00:14:00,49.4,42.5,30.18,NW,318,0.0,0.0,77,0.00,,,0.00,VWS V14.01,2013-10-15 04:14:00,
2013-10-15 00:19:00,49.2,42.3,30.18,NW,318,0.0,0.0,77,0.00,,,0.00,VWS V14.01,2013-10-15 04:19:00,
2013-10-15 00:24:00,49.2,42.6,30.15,NW,318,0.0,0.0,78,0.00,,,0.00,VWS V14.01,2013-10-15 04:24:00,
2013-10-15 00:29:00,49.2,42.6,30.15,NW,318,0.0,0.0,78,0.00,,,0.00,VWS V14.01,2013-10-15 04:29:00,
2013-10-15 00:34:00,49.0,42.5,30.15,NW,318,0.0,0.0,78,0.00,,,0.00,VWS V14.01,2013-10-15 04:34:00,
2013-10-15 00:39:00,49.0,42.5,30.15,NW,318,0.0,0.0,78,0.00,,,0.00,VWS V14.01,2013-10-15 04:39:00,
2013-10-15 00:44:00,48.8,42.3,30.15,NW,318,0.0,0.0,78,0.00,,,0.00,VWS V14.01,2013-10-15 04:44:00,
2013-10-15 00:49:00,48.8,42.3,30.15,NW,318,0.0,0.0,78,0.00,,,0.00,VWS V14.01,2013-10-15 04:49:00,
2013-10-15 00:54:00,48.7,42.1,30.15,NW,318,0.0,0.0,78,0.00,,,0.00,VWS V14.01,2013-10-15 04:54:00,
2013-10-15 00:59:00,48.5,41.9,30.15,NW,318,0.0,0.0,78,0.00,,,0.00,VWS V14.01,2013-10-15 04:59:00,
2013-10-15 01:04:00,48.5,41.9,30.15,NW,318,0.0,0.0,78,0.00,,,0.00,VWS V14.01,2013-10-15 05:04:00,
2013-10-15 01:10:00,48.3,42.1,30.15,NW,318,0.0,0.0,79,0.00,,,0.00,VWS V14.01,2013-10-15 05:10:00,
2013-10-15 01:15:00,48.3,42.1,30.15,NW,318,0.0,0.0,79,0.00,,,0.00,VWS V14.01,2013-10-15 05:15:00,
2013-10-15 01:20:00,48.3,42.1,30.15,NW,318,0.0,0.0,79,0.00,,,0.00,VWS V14.01,2013-10-15 05:20:00,
2013-10-15 01:25:00,48.3,42.1,30.15,NW,318,0.0,0.0,79,0.00,,,0.00,VWS V14.01,2013-10-15 05:25:00,
2013-10-15 01:30:00,48.3,42.1,30.15,NW,318,0.0,0.0,79,0.00,,,0.00,VWS V14.01,2013-10-15 05:30:00,
2013-10-15 01:35:00,48.3,42.1,30.15,NW,318,0.0,0.0,79,0.00,,,0.00,VWS V14.01,2013-10-15 05:35:00,
2013-10-15 01:40:00,48.3,42.1,30.15,NW,318,0.0,0.0,79,0.00,,,0.00,VWS V14.01,2013-10-15 05:40:00,
2013-10-15 01:45:00,48.3,42.4,30.15,NW,318,0.0,0.0,80,0.00,,,0.00,VWS V14.01,2013-10-15 05:45:00,
2013-10-15 01:50:00,48.3,42.4,30.15,NW,318,0.0,0.0,80,0.00,,,0.00,VWS V14.01,2013-10-15 05:50:00,
2013-10-15 01:55:00,48.1,42.2,30.15,NW,318,0.0,0.0,80,0.00,,,0.00,VWS V14.01,2013-10-15 05:55:00,
2013-10-15 02:00:00,48.1,42.2,30.15,NW,318,0.0,0.0,80,0.00,,,0.00,VWS V14.01,2013-10-15 06:00:00,
2013-10-15 02:05:00,48.1,42.2,30.15,NW,318,0.0,0.0,80,0.00,,,0.00,VWS V14.01,2013-10-15 06:05:00,
2013-10-15 02:10:00,48.1,42.2,30.15,NW,318,0.0,0.0,80,0.00,,,0.00,VWS V14.01,2013-10-15 06:10:00,
2013-10-15 02:15:00,47.9,42.1,30.15,NW,318,0.0,0.0,80,0.00,,,0.00,VWS V14.01,2013-10-15 06:15:00,
2013-10-15 02:20:00,47.9,42.1,30.15,NW,318,0.0,0.0,80,0.00,,,0.00,VWS V14.01,2013-10-15 06:20:00,
2013-10-15 02:25:00,47.8,41.9,30.12,NW,318,0.0,0.0,80,0.00,,,0.00,VWS V14.01,2013-10-15 06:25:00,
2013-10-15 02:30:00,47.8,41.9,30.12,NW,318,0.0,0.0,80,0.00,,,0.00,VWS V14.01,2013-10-15 06:30:00,
2013-10-15 02:35:00,47.8,41.9,30.12,NW,318,0.0,0.0,80,0.00,,,0.00,VWS V14.01,2013-10-15 06:35:00,
2013-10-15 02:40:00,47.8,42.2,30.12,NW,318,0.0,0.0,81,0.00,,,0.00,VWS V14.01,2013-10-15 06:40:00,
2013-10-15 02:45:00,47.9,42.4,30.12,NW,318,0.0,0.0,81,0.00,,,0.00,VWS V14.01,2013-10-15 06:45:00,
2013-10-15 02:50:00,47.8,42.2,30.12,NW,318,0.0,0.0,81,0.00,,,0.00,VWS V14.01,2013-10-15 06:50:00,
2013-10-15 02:55:00,47.8,42.2,30.12,NW,318,0.0,0.0,81,0.00,,,0.00,VWS V14.01,2013-10-15 06:55:00,
2013-10-15 03:00:00,47.6,42.0,30.12,NW,318,0.0,0.0,81,0.00,,,0.00,VWS V14.01,2013-10-15 07:00:00,
2013-10-15 03:06:00,47.6,42.0,30.12,NW,318,0.0,0.0,81,0.00,,,0.00,VWS V14.01,2013-10-15 07:06:00,
2013-10-15 03:11:00,47.6,42.0,30.12,NW,318,0.0,0.0,81,0.00,,,0.00,VWS V14.01,2013-10-15 07:11:00,
2013-10-15 03:16:00,47.6,42.0,30.12,NW,318,0.0,0.0,81,0.00,,,0.00,VWS V14.01,2013-10-15 07:16:00,
2013-10-15 03:21:00,47.6,42.0,30.12,NW,318,0.0,0.0,81,0.00,,,0.00,VWS V14.01,2013-10-15 07:21:00,
2013-10-15 03:26:00,47.6,42.4,30.12,NW,318,0.0,0.0,82,0.00,,,0.00,VWS V14.01,2013-10-15 07:26:00,
2013-10-15 03:31:00,47.6,42.4,30.12,NW,318,0.0,0.0,82,0.00,,,0.00,VWS V14.01,2013-10-15 07:31:00,
2013-10-15 03:36:00,47.6,42.4,30.12,NW,318,0.0,0.0,82,0.00,,,0.00,VWS V14.01,2013-10-15 07:36:00,
2013-10-15 03:41:00,47.8,42.5,30.12,NW,318,0.0,0.0,82,0.00,,,0.00,VWS V14.01,2013-10-15 07:41:00,
2013-10-15 03:46:00,47.8,42.9,30.12,NW,318,0.0,0.0,83,0.00,,,0.00,VWS V14.01,2013-10-15 07:46:00,
2013-10-15 03:51:00,47.8,42.5,30.12,NW,318,0.0,0.0,82,0.00,,,0.00,VWS V14.01,2013-10-15 07:51:00,
2013-10-15 03:56:00,47.8,42.5,30.12,NW,318,0.0,0.0,82,0.00,,,0.00,VWS V14.01,2013-10-15 07:56:00,
2013-10-15 04:01:00,47.8,42.9,30.12,NW,318,0.0,0.0,83,0.00,,,0.00,VWS V14.01,2013-10-15 08:01:00,
2013-10-15 04:06:00,48.3,43.7,30.12,NW,318,0.0,0.0,84,0.00,,,0.00,VWS V14.01,2013-10-15 08:06:00,
2013-10-15 04:11:00,48.3,43.4,30.12,NW,318,0.0,0.0,83,0.00,,,0.00,VWS V14.01,2013-10-15 08:11:00,
2013-10-15 04:16:00,48.3,43.4,30.12,NW,318,0.0,0.0,83,0.00,,,0.00,VWS V14.01,2013-10-15 08:16:00,
2013-10-15 04:21:00,48.3,43.4,30.12,NW,318,0.0,0.0,83,0.00,,,0.00,VWS V14.01,2013-10-15 08:21:00,
2013-10-15 04:26:00,48.1,43.2,30.12,NW,318,0.0,0.0,83,0.00,,,0.00,VWS V14.01,2013-10-15 08:26:00,
2013-10-15 04:31:00,48.1,43.2,30.12,NW,318,0.0,0.0,83,0.00,,,0.00,VWS V14.01,2013-10-15 08:31:00,
2013-10-15 04:36:00,48.3,43.7,30.12,NW,318,0.0,0.0,84,0.00,,,0.00,VWS V14.01,2013-10-15 08:36:00,
2013-10-15 04:41:00,48.3,43.7,30.12,NW,318,0.0,0.0,84,0.00,,,0.00,VWS V14.01,2013-10-15 08:41:00,
2013-10-15 04:46:00,48.3,43.7,30.12,NW,318,0.0,0.0,84,0.00,,,0.00,VWS V14.01,2013-10-15 08:46:00,
2013-10-15 04:51:00,47.9,43.3,30.12,NW,318,0.0,0.0,84,0.00,,,0.00,VWS V14.01,2013-10-15 08:51:00,
2013-10-15 04:56:00,47.8,43.2,30.12,NW,318,0.0,0.0,84,0.00,,,0.00,VWS V14.01,2013-10-15 08:56:00,
2013-10-15 05:01:00,47.6,43.0,30.12,NW,318,0.0,0.0,84,0.00,,,0.00,VWS V14.01,2013-10-15 09:01:00,
2013-10-15 05:06:00,47.4,42.8,30.12,NW,318,0.0,0.0,84,0.00,,,0.00,VWS V14.01,2013-10-15 09:06:00,
2013-10-15 05:11:00,47.6,43.0,30.12,NW,318,0.0,0.0,84,0.00,,,0.00,VWS V14.01,2013-10-15 09:11:00,
2013-10-15 05:16:00,47.6,43.0,30.12,NW,318,0.0,0.0,84,0.00,,,0.00,VWS V14.01,2013-10-15 09:16:00,
2013-10-15 05:22:00,47.9,43.7,30.12,NW,318,0.0,0.0,85,0.00,,,0.00,VWS V14.01,2013-10-15 09:22:00,
2013-10-15 05:27:00,47.8,43.5,30.12,NW,318,0.0,0.0,85,0.00,,,0.00,VWS V14.01,2013-10-15 09:27:00,
2013-10-15 05:32:00,47.9,43.7,30.12,NW,318,0.0,0.0,85,0.00,,,0.00,VWS V14.01,2013-10-15 09:32:00,
2013-10-15 05:37:00,47.9,43.7,30.12,NW,318,0.0,0.0,85,0.00,,,0.00,VWS V14.01,2013-10-15 09:37:00,
2013-10-15 05:42:00,47.9,43.7,30.12,NW,318,0.0,0.0,85,0.00,,,0.00,VWS V14.01,2013-10-15 09:42:00,
2013-10-15 05:47:00,47.8,43.5,30.12,NW,318,0.0,0.0,85,0.00,,,0.00,VWS V14.01,2013-10-15 09:47:00,
2013-10-15 05:52:00,47.6,43.3,30.12,NW,318,0.0,0.0,85,0.00,,,0.00,VWS V14.01,2013-10-15 09:52:00,
2013-10-15 05:57:00,47.6,43.3,30.12,NW,318,0.0,0.0,85,0.00,,,0.00,VWS V14.01,2013-10-15 09:57:00,
2013-10-15 06:02:00,47.6,43.3,30.12,NW,318,0.0,0.0,85,0.00,,,0.00,VWS V14.01,2013-10-15 10:02:00,
2013-10-15 06:07:00,47.4,43.1,30.12,NW,318,0.0,0.0,85,0.00,,,0.00,VWS V14.01,2013-10-15 10:07:00,
2013-10-15 06:12:00,47.2,43.2,30.12,NW,318,0.0,0.0,86,0.00,,,0.00,VWS V14.01,2013-10-15 10:12:00,
2013-10-15 06:17:00,47.2,43.2,30.12,NW,318,0.0,0.0,86,0.00,,,0.00,VWS V14.01,2013-10-15 10:17:00,
2013-10-15 06:22:00,47.2,43.2,30.12,NW,318,0.0,0.0,86,0.00,,,0.00,VWS V14.01,2013-10-15 10:22:00,
2013-10-15 06:27:00,47.2,43.2,30.12,NW,318,0.0,0.0,86,0.00,,,0.00,VWS V14.01,2013-10-15 10:27:00,
2013-10-15 06:32:00,47.0,43.1,30.12,NW,318,0.0,0.0,86,0.00,,,0.00,VWS V14.01,2013-10-15 10:32:00,
2013-10-15 06:37:00,47.0,43.1,30.12,NW,318,0.0,0.0,86,0.00,,,0.00,VWS V14.01,2013-10-15 10:37:00,
2013-10-15 06:42:00,47.2,43.5,30.12,NW,318,0.0,0.0,87,0.00,,,0.00,VWS V14.01,2013-10-15 10:42:00,
2013-10-15 06:47:00,47.4,43.4,30.12,NW,318,0.0,0.0,86,0.00,,,0.00,VWS V14.01,2013-10-15 10:47:00,
2013-10-15 06:52:00,47.6,43.6,30.12,NW,318,0.0,0.0,86,0.00,,,0.00,VWS V14.01,2013-10-15 10:52:00,
2013-10-15 06:57:00,47.4,43.4,30.12,NW,318,0.0,0.0,86,0.00,,,0.00,VWS V14.01,2013-10-15 10:57:00,
2013-10-15 07:02:00,47.2,43.2,30.12,NW,318,0.0,0.0,86,0.00,,,0.00,VWS V14.01,2013-10-15 11:02:00,
2013-10-15 07:07:00,46.9,42.9,30.12,NW,318,0.0,0.0,86,0.00,,,0.00,VWS V14.01,2013-10-15 11:07:00,
2013-10-15 07:12:00,46.9,42.9,30.12,NW,318,0.0,0.0,86,0.00,,,0.00,VWS V14.01,2013-10-15 11:12:00,
2013-10-15 07:17:00,46.7,42.7,30.12,NW,318,0.0,0.0,86,0.00,,,0.00,VWS V14.01,2013-10-15 11:17:00,
2013-10-15 07:22:00,46.7,42.7,30.12,NW,318,0.0,0.0,86,0.00,,,0.00,VWS V14.01,2013-10-15 11:22:00,
2013-10-15 07:27:00,46.5,42.8,30.12,NW,318,0.0,0.0,87,0.00,,,0.00,VWS V14.01,2013-10-15 11:27:00,
2013-10-15 07:33:00,46.5,42.8,30.12,NW,318,0.0,0.0,87,0.00,,,0.00,VWS V14.01,2013-10-15 11:33:00,
2013-10-15 07:38:00,46.5,42.8,30.12,NW,318,0.0,0.0,87,0.00,,,0.00,VWS V14.01,2013-10-15 11:38:00,
2013-10-15 07:43:00,46.7,43.0,30.12,NW,318,0.0,0.0,87,0.00,,,0.00,VWS V14.01,2013-10-15 11:43:00,
2013-10-15 07:48:00,47.0,43.7,30.12,NW,318,0.0,0.0,88,0.00,,,0.00,VWS V14.01,2013-10-15 11:48:00,
2013-10-15 07:53:00,47.4,44.0,30.12,NW,318,0.0,0.0,88,0.00,,,0.00,VWS V14.01,2013-10-15 11:53:00,
2013-10-15 07:58:00,47.9,44.6,30.12,NW,318,0.0,0.0,88,0.00,,,0.00,VWS V14.01,2013-10-15 11:58:00,
2013-10-15 08:03:00,48.3,44.9,30.12,NW,318,0.0,0.0,88,0.00,,,0.00,VWS V14.01,2013-10-15 12:03:00,
2013-10-15 08:08:00,48.8,45.5,30.12,NW,318,0.0,0.0,88,0.00,,,0.00,VWS V14.01,2013-10-15 12:08:00,
2013-10-15 08:13:00,49.0,45.9,30.12,NW,318,0.0,0.0,89,0.00,,,0.00,VWS V14.01,2013-10-15 12:13:00,
2013-10-15 08:18:00,49.7,46.6,30.12,NW,318,0.0,0.0,89,0.00,,,0.00,VWS V14.01,2013-10-15 12:18:00,
2013-10-15 08:23:00,50.6,47.5,30.12,NW,318,0.0,0.0,89,0.00,,,0.00,VWS V14.01,2013-10-15 12:23:00,
2013-10-15 08:28:00,51.2,47.8,30.12,NW,318,0.0,0.0,88,0.00,,,0.00,VWS V14.01,2013-10-15 12:28:00,
2013-10-15 08:33:00,51.4,47.9,30.12,NW,318,0.0,0.0,88,0.00,,,0.00,VWS V14.01,2013-10-15 12:33:00,
2013-10-15 08:38:00,51.7,48.6,30.12,NW,318,0.0,0.0,89,0.00,,,0.00,VWS V14.01,2013-10-15 12:38:00,
2013-10-15 08:43:00,52.3,49.1,30.12,NW,318,0.0,0.0,89,0.00,,,0.00,VWS V14.01,2013-10-15 12:43:00,
2013-10-15 08:48:00,53.0,49.8,30.12,NW,318,0.0,0.0,89,0.00,,,0.00,VWS V14.01,2013-10-15 12:48:00,
2013-10-15 08:53:00,53.5,50.4,30.12,NW,318,0.0,0.0,89,0.00,,,0.00,VWS V14.01,2013-10-15 12:53:00,
2013-10-15 08:58:00,54.1,50.9,30.12,NW,318,0.0,0.0,89,0.00,,,0.00,VWS V14.01,2013-10-15 12:58:00,
2013-10-15 09:03:00,54.8,51.6,30.12,NW,318,0.0,0.0,89,0.00,,,0.00,VWS V14.01,2013-10-15 13:03:00,
2013-10-15 09:08:00,55.3,52.1,30.12,NW,318,0.0,0.0,89,0.00,,,0.00,VWS V14.01,2013-10-15 13:08:00,
2013-10-15 09:13:00,56.0,52.8,30.12,NW,318,0.0,0.0,89,0.00,,,0.00,VWS V14.01,2013-10-15 13:13:00,
2013-10-15 09:18:00,57.5,54.6,30.12,NW,318,0.0,0.0,90,0.00,,,0.00,VWS V14.01,2013-10-15 13:18:00,
2013-10-15 09:23:00,58.2,55.3,30.12,North,11,0.0,0.0,90,0.00,,,0.00,VWS V14.01,2013-10-15 13:23:00,
2013-10-15 09:28:00,58.9,56.0,30.12,North,349,0.0,0.0,90,0.00,,,0.00,VWS V14.01,2013-10-15 13:28:00,
2013-10-15 09:33:00,59.6,56.7,30.12,NE,44,3.1,3.1,90,0.00,,,0.00,VWS V14.01,2013-10-15 13:33:00,
2013-10-15 09:38:00,60.4,57.1,30.12,NE,47,3.1,3.1,89,0.00,,,0.00,VWS V14.01,2013-10-15 13:38:00,
2013-10-15 09:43:00,61.1,57.2,30.12,NE,47,0.0,0.0,87,0.00,,,0.00,VWS V14.01,2013-10-15 13:43:00,
2013-10-15 09:48:00,61.3,55.0,30.12,ENE,69,2.2,2.2,80,0.00,,,0.00,VWS V14.01,2013-10-15 13:48:00,
2013-10-15 09:54:00,62.0,46.1,30.12,NNE,16,3.6,4.9,56,0.00,,,0.00,VWS V14.01,2013-10-15 13:54:00,
2013-10-15 09:59:00,62.5,44.7,30.12,ENE,71,2.7,4.0,52,0.00,,,0.00,VWS V14.01,2013-10-15 13:59:00,
2013-10-15 10:04:00,62.9,45.0,30.12,NE,42,2.7,2.7,52,0.00,,,0.00,VWS V14.01,2013-10-15 14:04:00,
2013-10-15 10:09:00,63.8,45.3,30.12,East,92,0.0,0.0,51,0.00,,,0.00,VWS V14.01,2013-10-15 14:09:00,
2013-10-15 10:14:00,64.1,44.1,30.12,NNE,24,2.7,2.7,48,0.00,,,0.00,VWS V14.01,2013-10-15 14:14:00,
2013-10-15 10:19:00,64.5,44.4,30.12,NE,34,3.6,4.9,48,0.00,,,0.00,VWS V14.01,2013-10-15 14:19:00,
2013-10-15 10:24:00,64.9,43.0,30.12,NNE,16,2.7,3.1,45,0.00,,,0.00,VWS V14.01,2013-10-15 14:24:00,
2013-10-15 10:29:00,65.2,42.8,30.12,NNE,28,2.2,3.6,44,0.00,,,0.00,VWS V14.01,2013-10-15 14:29:00,
2013-10-15 10:34:00,65.4,42.3,30.12,East,88,3.6,3.6,43,0.00,,,0.00,VWS V14.01,2013-10-15 14:34:00,
2013-10-15 10:39:00,65.4,41.7,30.12,NE,53,2.7,2.7,42,0.00,,,0.00,VWS V14.01,2013-10-15 14:39:00,
2013-10-15 10:44:00,66.1,41.1,30.12,ENE,61,2.7,2.7,40,0.00,,,0.00,VWS V14.01,2013-10-15 14:44:00,
2013-10-15 10:49:00,66.7,39.6,30.12,ENE,78,3.6,3.6,37,0.00,,,0.00,VWS V14.01,2013-10-15 14:49:00,
2013-10-15 10:54:00,67.0,37.8,30.12,NE,46,3.1,3.1,34,0.00,,,0.00,VWS V14.01,2013-10-15 14:54:00,
2013-10-15 10:59:00,67.0,37.0,30.12,NE,55,0.0,0.0,33,0.00,,,0.00,VWS V14.01,2013-10-15 14:59:00,
2013-10-15 11:04:00,67.9,35.4,30.12,ENE,66,3.6,3.6,30,0.00,,,0.00,VWS V14.01,2013-10-15 15:04:00,
2013-10-15 11:09:00,68.1,36.3,30.12,ENE,75,0.0,0.0,31,0.00,,,0.00,VWS V14.01,2013-10-15 15:09:00,
2013-10-15 11:14:00,68.5,35.8,30.12,SSE,149,0.0,0.0,30,0.00,,,0.00,VWS V14.01,2013-10-15 15:14:00,
2013-10-15 11:19:00,69.2,34.7,30.12,ENE,60,4.0,4.0,28,0.00,,,0.00,VWS V14.01,2013-10-15 15:19:00,
2013-10-15 11:24:00,68.8,34.4,30.12,ENE,64,0.0,4.0,28,0.00,,,0.00,VWS V14.01,2013-10-15 15:24:00,
2013-10-15 11:29:00,68.6,34.3,30.12,ENE,76,3.6,3.6,28,0.00,,,0.00,VWS V14.01,2013-10-15 15:29:00,
2013-10-15 11:34:00,68.1,33.8,30.12,ENE,68,5.8,5.8,28,0.00,,,0.00,VWS V14.01,2013-10-15 15:34:00,
2013-10-15 11:39:00,68.1,32.9,30.12,ENE,64,4.9,4.9,27,0.00,,,0.00,VWS V14.01,2013-10-15 15:39:00,
2013-10-15 11:44:00,68.1,32.9,30.12,East,81,3.1,3.1,27,0.00,,,0.00,VWS V14.01,2013-10-15 15:44:00,
2013-10-15 11:49:00,68.3,34.0,30.12,NE,41,2.7,3.1,28,0.00,,,0.00,VWS V14.01,2013-10-15 15:49:00,
2013-10-15 11:54:00,69.0,33.7,30.12,East,85,2.7,2.7,27,0.00,,,0.00,VWS V14.01,2013-10-15 15:54:00,
2013-10-15 11:59:00,69.2,33.8,30.12,East,93,3.6,3.6,27,0.00,,,0.00,VWS V14.01,2013-10-15 15:59:00,
2013-10-15 12:04:00,69.2,33.8,30.12,ENE,65,4.0,4.0,27,0.00,,,0.00,VWS V14.01,2013-10-15 16:04:00,
2013-10-15 12:09:00,69.2,33.8,30.12,South,171,0.0,0.0,27,0.00,,,0.00,VWS V14.01,2013-10-15 16:09:00,
2013-10-15 12:15:00,69.5,34.1,30.12,ENE,63,4.0,4.0,27,0.00,,,0.00,VWS V14.01,2013-10-15 16:15:00,
2013-10-15 12:20:00,69.7,34.3,30.12,ENE,59,3.1,3.1,27,0.00,,,0.00,VWS V14.01,2013-10-15 16:20:00,
2013-10-15 12:25:00,70.1,33.6,30.12,NE,47,4.0,4.0,26,0.00,,,0.00,VWS V14.01,2013-10-15 16:25:00,
2013-10-15 12:30:00,70.4,34.9,30.12,East,89,3.1,3.1,27,0.00,,,0.00,VWS V14.01,2013-10-15 16:30:00,
2013-10-15 12:35:00,70.6,34.1,30.12,NNE,25,2.2,2.7,26,0.00,,,0.00,VWS V14.01,2013-10-15 16:35:00,
2013-10-15 12:40:00,70.4,33.9,30.09,NE,47,3.1,3.6,26,0.00,,,0.00,VWS V14.01,2013-10-15 16:40:00,
2013-10-15 12:45:00,70.3,34.7,30.09,ENE,66,2.7,2.7,27,0.00,,,0.00,VWS V14.01,2013-10-15 16:45:00,
2013-10-15 12:50:00,70.1,34.6,30.09,ENE,63,2.7,2.7,27,0.00,,,0.00,VWS V14.01,2013-10-15 16:50:00,
2013-10-15 12:55:00,70.1,34.6,30.09,ENE,72,3.1,3.1,27,0.00,,,0.00,VWS V14.01,2013-10-15 16:55:00,
2013-10-15 13:00:00,69.9,34.4,30.09,SSE,148,0.0,0.0,27,0.00,,,0.00,VWS V14.01,2013-10-15 17:00:00,
2013-10-15 13:05:00,70.1,34.6,30.09,SW,227,0.0,0.0,27,0.00,,,0.00,VWS V14.01,2013-10-15 17:05:00,
2013-10-15 13:10:00,70.3,34.7,30.09,East,79,4.9,4.9,27,0.00,,,0.00,VWS V14.01,2013-10-15 17:10:00,
2013-10-15 13:15:00,70.3,34.7,30.09,ENE,69,0.0,0.0,27,0.00,,,0.00,VWS V14.01,2013-10-15 17:15:00,
2013-10-15 13:20:00,70.4,35.8,30.09,NE,49,0.0,0.0,28,0.00,,,0.00,VWS V14.01,2013-10-15 17:20:00,
2013-10-15 13:25:00,70.3,35.7,30.09,North,357,2.7,3.1,28,0.00,,,0.00,VWS V14.01,2013-10-15 17:25:00,
2013-10-15 13:30:00,69.7,35.2,30.09,ENE,65,2.2,3.6,28,0.00,,,0.00,VWS V14.01,2013-10-15 17:30:00,
2013-10-15 13:35:00,69.0,35.5,30.06,NE,43,5.4,5.4,29,0.00,,,0.00,VWS V14.01,2013-10-15 17:35:00,
2013-10-15 13:40:00,68.5,35.8,30.06,NNE,32,3.6,3.6,30,0.00,,,0.00,VWS V14.01,2013-10-15 17:40:00,
2013-10-15 13:45:00,68.5,36.7,30.06,NNE,32,4.0,4.0,31,0.00,,,0.00,VWS V14.01,2013-10-15 17:45:00,
2013-10-15 13:50:00,68.3,34.8,30.06,NE,45,4.9,4.9,29,0.00,,,0.00,VWS V14.01,2013-10-15 17:50:00,
2013-10-15 13:55:00,68.1,35.5,30.06,NNE,33,2.7,2.7,30,0.00,,,0.00,VWS V14.01,2013-10-15 17:55:00,
2013-10-15 14:00:00,67.9,34.5,30.06,NNE,17,2.7,2.7,29,0.00,,,0.00,VWS V14.01,2013-10-15 18:00:00,
2013-10-15 14:05:00,67.7,33.5,30.06,NNE,16,3.1,4.0,28,0.00,,,0.00,VWS V14.01,2013-10-15 18:05:00,
2013-10-15 14:10:00,67.7,33.5,30.06,NNE,22,3.1,3.1,28,0.00,,,0.00,VWS V14.01,2013-10-15 18:10:00,
2013-10-15 14:15:00,67.7,33.5,30.06,ENE,62,0.0,0.0,28,0.00,,,0.00,VWS V14.01,2013-10-15 18:15:00,
2013-10-15 14:20:00,67.9,33.6,30.06,West,273,2.7,2.7,28,0.00,,,0.00,VWS V14.01,2013-10-15 18:20:00,
2013-10-15 14:25:00,67.9,33.6,30.06,South,172,0.0,0.0,28,0.00,,,0.00,VWS V14.01,2013-10-15 18:25:00,
2013-10-15 14:30:00,68.3,34.0,30.06,SSW,211,3.1,3.1,28,0.00,,,0.00,VWS V14.01,2013-10-15 18:30:00,
2013-10-15 14:35:00,68.3,33.0,30.06,ENE,73,5.4,5.4,27,0.00,,,0.00,VWS V14.01,2013-10-15 18:35:00,
2013-10-15 14:41:00,68.1,32.9,30.06,NE,45,0.0,3.6,27,0.00,,,0.00,VWS V14.01,2013-10-15 18:41:00,
2013-10-15 14:46:00,67.7,32.6,30.06,East,98,3.1,3.1,27,0.00,,,0.00,VWS V14.01,2013-10-15 18:46:00,
2013-10-15 14:51:00,67.6,33.3,30.06,East,97,3.6,3.6,28,0.00,,,0.00,VWS V14.01,2013-10-15 18:51:00,
2013-10-15 14:56:00,67.6,32.4,30.06,East,88,0.0,0.0,27,0.00,,,0.00,VWS V14.01,2013-10-15 18:56:00,
2013-10-15 15:01:00,67.7,33.5,30.06,ESE,112,3.1,3.1,28,0.00,,,0.00,VWS V14.01,2013-10-15 19:01:00,
2013-10-15 15:06:00,67.6,33.3,30.06,ESE,102,4.0,4.0,28,0.00,,,0.00,VWS V14.01,2013-10-15 19:06:00,
2013-10-15 15:11:00,67.4,33.2,30.06,East,100,3.6,3.6,28,0.00,,,0.00,VWS V14.01,2013-10-15 19:11:00,
2013-10-15 15:16:00,67.2,33.0,30.06,East,79,0.0,0.0,28,0.00,,,0.00,VWS V14.01,2013-10-15 19:16:00,
2013-10-15 15:21:00,67.2,33.0,30.06,NE,49,0.0,3.6,28,0.00,,,0.00,VWS V14.01,2013-10-15 19:21:00,
2013-10-15 15:26:00,67.2,33.0,30.06,NNE,25,0.0,2.7,28,0.00,,,0.00,VWS V14.01,2013-10-15 19:26:00,
2013-10-15 15:31:00,67.0,33.7,30.06,ENE,57,5.4,5.4,29,0.00,,,0.00,VWS V14.01,2013-10-15 19:31:00,
2013-10-15 15:36:00,66.8,33.6,30.06,NE,54,4.9,4.9,29,0.00,,,0.00,VWS V14.01,2013-10-15 19:36:00,
2013-10-15 15:41:00,66.8,33.6,30.06,NNE,31,4.0,4.0,29,0.00,,,0.00,VWS V14.01,2013-10-15 19:41:00,
2013-10-15 15:46:00,66.7,33.4,30.06,East,100,4.9,4.9,29,0.00,,,0.00,VWS V14.01,2013-10-15 19:46:00,
2013-10-15 15:51:00,66.7,33.4,30.06,East,99,3.1,4.9,29,0.00,,,0.00,VWS V14.01,2013-10-15 19:51:00,
2013-10-15 15:56:00,66.7,35.1,30.06,East,87,0.0,0.0,31,0.00,,,0.00,VWS V14.01,2013-10-15 19:56:00,
2013-10-15 16:01:00,66.5,34.9,30.06,NE,37,3.6,4.9,31,0.00,,,0.00,VWS V14.01,2013-10-15 20:01:00,
2013-10-15 16:06:00,66.3,34.8,30.03,ENE,76,3.1,3.1,31,0.00,,,0.00,VWS V14.01,2013-10-15 20:06:00,
2013-10-15 16:11:00,66.1,35.4,30.03,ENE,61,2.7,2.7,32,0.00,,,0.00,VWS V14.01,2013-10-15 20:11:00,
2013-10-15 16:16:00,65.8,36.6,30.03,ENE,66,2.7,3.6,34,0.00,,,0.00,VWS V14.01,2013-10-15 20:16:00,
2013-10-15 16:21:00,65.8,36.6,30.03,NE,49,3.1,3.1,34,0.00,,,0.00,VWS V14.01,2013-10-15 20:21:00,
2013-10-15 16:26:00,65.6,37.9,30.03,NNE,24,0.0,0.0,36,0.00,,,0.00,VWS V14.01,2013-10-15 20:26:00,
2013-10-15 16:31:00,65.4,37.8,30.03,NNE,19,0.0,2.7,36,0.00,,,0.00,VWS V14.01,2013-10-15 20:31:00,
2013-10-15 16:36:00,65.2,38.3,30.03,ESE,119,0.0,3.6,37,0.00,,,0.00,VWS V14.01,2013-10-15 20:36:00,
2013-10-15 16:41:00,65.0,38.2,30.03,NE,34,3.1,3.1,37,0.00,,,0.00,VWS V14.01,2013-10-15 20:41:00,
2013-10-15 16:46:00,64.9,38.7,30.03,ENE,63,0.0,0.0,38,0.00,,,0.00,VWS V14.01,2013-10-15 20:46:00,
2013-10-15 16:51:00,64.7,38.5,30.03,ENE,67,3.1,3.1,38,0.00,,,0.00,VWS V14.01,2013-10-15 20:51:00,
2013-10-15 16:57:00,64.5,39.0,30.03,ENE,60,2.7,3.1,39,0.00,,,0.00,VWS V14.01,2013-10-15 20:57:00,
2013-10-15 17:02:00,64.1,38.7,30.03,ENE,63,0.0,0.0,39,0.00,,,0.00,VWS V14.01,2013-10-15 21:02:00,
2013-10-15 17:07:00,64.0,39.2,30.03,NE,51,3.6,3.6,40,0.00,,,0.00,VWS V14.01,2013-10-15 21:07:00,
2013-10-15 17:12:00,63.8,39.0,30.03,NE,49,2.7,5.4,40,0.00,,,0.00,VWS V14.01,2013-10-15 21:12:00,
2013-10-15 17:17:00,63.6,39.5,30.03,East,98,2.7,3.6,41,0.00,,,0.00,VWS V14.01,2013-10-15 21:17:00,
2013-10-15 17:22:00,63.2,39.8,30.03,NE,46,0.0,0.0,42,0.00,,,0.00,VWS V14.01,2013-10-15 21:22:00,
2013-10-15 17:27:00,63.1,40.2,30.03,ENE,57,3.1,3.1,43,0.00,,,0.00,VWS V14.01,2013-10-15 21:27:00,
2013-10-15 17:32:00,62.9,40.7,30.03,NNE,30,0.0,0.0,44,0.00,,,0.00,VWS V14.01,2013-10-15 21:32:00,
2013-10-15 17:37:00,62.7,41.1,30.03,NE,38,0.0,0.0,45,0.00,,,0.00,VWS V14.01,2013-10-15 21:37:00,
2013-10-15 17:42:00,62.3,40.8,30.03,NE,38,0.0,0.0,45,0.00,,,0.00,VWS V14.01,2013-10-15 21:42:00,
2013-10-15 17:47:00,62.2,40.6,30.03,ENE,70,0.0,0.0,45,0.00,,,0.00,VWS V14.01,2013-10-15 21:47:00,
2013-10-15 17:52:00,62.0,41.5,30.03,East,99,0.0,0.0,47,0.00,,,0.00,VWS V14.01,2013-10-15 21:52:00,
2013-10-15 17:57:00,61.6,41.8,30.03,SE,137,0.0,0.0,48,0.00,,,0.00,VWS V14.01,2013-10-15 21:57:00,
2013-10-15 18:02:00,61.3,41.4,30.03,SSE,165,0.0,0.0,48,0.00,,,0.00,VWS V14.01,2013-10-15 22:02:00,
2013-10-15 18:07:00,61.1,41.8,30.03,ESE,120,0.0,0.0,49,0.00,,,0.00,VWS V14.01,2013-10-15 22:07:00,
2013-10-15 18:12:00,60.7,41.5,30.03,ESE,120,0.0,0.0,49,0.00,,,0.00,VWS V14.01,2013-10-15 22:12:00,
2013-10-15 18:17:00,60.4,41.7,30.03,ESE,120,0.0,0.0,50,0.00,,,0.00,VWS V14.01,2013-10-15 22:17:00,
2013-10-15 18:22:00,60.0,41.3,30.06,ESE,120,0.0,0.0,50,0.00,,,0.00,VWS V14.01,2013-10-15 22:22:00,
2013-10-15 18:27:00,59.6,41.5,30.06,ESE,120,0.0,0.0,51,0.00,,,0.00,VWS V14.01,2013-10-15 22:27:00,
2013-10-15 18:32:00,59.1,41.5,30.06,ESE,120,0.0,0.0,52,0.00,,,0.00,VWS V14.01,2013-10-15 22:32:00,
2013-10-15 18:37:00,58.6,41.5,30.06,ESE,120,0.0,0.0,53,0.00,,,0.00,VWS V14.01,2013-10-15 22:37:00,
2013-10-15 18:42:00,58.2,41.2,30.06,ESE,120,0.0,0.0,53,0.00,,,0.00,VWS V14.01,2013-10-15 22:42:00,
2013-10-15 18:47:00,57.7,41.6,30.06,ESE,120,0.0,0.0,55,0.00,,,0.00,VWS V14.01,2013-10-15 22:47:00,
2013-10-15 18:52:00,57.7,42.1,30.06,ESE,120,0.0,0.0,56,0.00,,,0.00,VWS V14.01,2013-10-15 22:52:00,
2013-10-15 18:58:00,57.3,42.2,30.06,ESE,120,0.0,0.0,57,0.00,,,0.00,VWS V14.01,2013-10-15 22:58:00,
2013-10-15 19:03:00,56.9,42.3,30.06,ESE,120,0.0,0.0,58,0.00,,,0.00,VWS V14.01,2013-10-15 23:03:00,
2013-10-15 19:08:00,56.9,42.3,30.06,ESE,120,0.0,0.0,58,0.00,,,0.00,VWS V14.01,2013-10-15 23:08:00,
2013-10-15 19:13:00,56.2,42.5,30.06,ESE,120,0.0,0.0,60,0.00,,,0.00,VWS V14.01,2013-10-15 23:13:00,
2013-10-15 19:18:00,55.9,42.6,30.06,ESE,120,0.0,0.0,61,0.00,,,0.00,VWS V14.01,2013-10-15 23:18:00,
2013-10-15 19:23:00,55.9,42.6,30.03,ESE,120,0.0,0.0,61,0.00,,,0.00,VWS V14.01,2013-10-15 23:23:00,
2013-10-15 19:28:00,55.5,42.7,30.03,ESE,120,0.0,0.0,62,0.00,,,0.00,VWS V14.01,2013-10-15 23:28:00,
2013-10-15 19:33:00,55.3,43.0,30.03,ESE,120,0.0,0.0,63,0.00,,,0.00,VWS V14.01,2013-10-15 23:33:00,
2013-10-15 19:38:00,55.1,42.8,30.06,ESE,120,0.0,0.0,63,0.00,,,0.00,VWS V14.01,2013-10-15 23:38:00,
2013-10-15 19:43:00,55.0,43.0,30.06,ESE,120,0.0,0.0,64,0.00,,,0.00,VWS V14.01,2013-10-15 23:43:00,
2013-10-15 19:48:00,54.8,42.8,30.06,ESE,120,0.0,0.0,64,0.00,,,0.00,VWS V14.01,2013-10-15 23:48:00,
2013-10-15 19:53:00,54.6,43.1,30.06,ESE,120,0.0,0.0,65,0.00,,,0.00,VWS V14.01,2013-10-15 23:53:00,
2013-10-15 19:58:00,54.6,43.1,30.06,ESE,120,0.0,0.0,65,0.00,,,0.00,VWS V14.01,2013-10-15 23:58:00,
2013-10-15 20:03:00,54.6,43.5,30.06,ESE,120,0.0,0.0,66,0.00,,,0.00,VWS V14.01,2013-10-16 00:03:00,
2013-10-15 20:08:00,54.6,43.9,30.06,ESE,120,0.0,0.0,67,0.00,,,0.00,VWS V14.01,2013-10-16 00:08:00,
2013-10-15 20:13:00,55.0,45.0,30.06,ESE,120,0.0,0.0,69,0.00,,,0.00,VWS V14.01,2013-10-16 00:13:00,
2013-10-15 20:18:00,55.0,45.0,30.06,ESE,120,0.0,0.0,69,0.00,,,0.00,VWS V14.01,2013-10-16 00:18:00,
2013-10-15 20:23:00,55.0,45.4,30.06,ESE,120,0.0,0.0,70,0.00,,,0.00,VWS V14.01,2013-10-16 00:23:00,
2013-10-15 20:28:00,54.8,45.2,30.06,ESE,120,0.0,0.0,70,0.00,,,0.00,VWS V14.01,2013-10-16 00:28:00,
2013-10-15 20:34:00,54.8,45.2,30.06,ESE,120,0.0,0.0,70,0.00,,,0.00,VWS V14.01,2013-10-16 00:34:00,
2013-10-15 20:39:00,54.4,45.2,30.06,ESE,120,0.0,0.0,71,0.00,,,0.00,VWS V14.01,2013-10-16 00:39:00,
2013-10-15 20:44:00,54.4,45.2,30.06,ESE,120,0.0,0.0,71,0.00,,,0.00,VWS V14.01,2013-10-16 00:44:00,
2013-10-15 20:49:00,54.1,44.9,30.06,ESE,120,0.0,0.0,71,0.00,,,0.00,VWS V14.01,2013-10-16 00:49:00,
2013-10-15 20:54:00,53.7,44.5,30.06,ESE,120,0.0,0.0,71,0.00,,,0.00,VWS V14.01,2013-10-16 00:54:00,
2013-10-15 20:59:00,53.5,44.4,30.06,ESE,120,0.0,0.0,71,0.00,,,0.00,VWS V14.01,2013-10-16 00:59:00,
2013-10-15 21:04:00,53.3,44.5,30.06,ESE,120,0.0,0.0,72,0.00,,,0.00,VWS V14.01,2013-10-16 01:04:00,
2013-10-15 21:09:00,53.2,44.4,30.06,ESE,120,0.0,0.0,72,0.00,,,0.00,VWS V14.01,2013-10-16 01:09:00,
2013-10-15 21:14:00,53.0,44.2,30.06,ESE,120,0.0,0.0,72,0.00,,,0.00,VWS V14.01,2013-10-16 01:14:00,
2013-10-15 21:19:00,52.8,44.4,30.06,ESE,120,0.0,0.0,73,0.00,,,0.00,VWS V14.01,2013-10-16 01:19:00,
2013-10-15 21:24:00,52.8,44.4,30.06,ESE,120,0.0,0.0,73,0.00,,,0.00,VWS V14.01,2013-10-16 01:24:00,
2013-10-15 21:29:00,52.8,44.4,30.06,ESE,120,0.0,0.0,73,0.00,,,0.00,VWS V14.01,2013-10-16 01:29:00,
2013-10-15 21:34:00,52.8,44.8,30.06,ESE,120,0.0,0.0,74,0.00,,,0.00,VWS V14.01,2013-10-16 01:34:00,
2013-10-15 21:39:00,52.8,44.8,30.06,ESE,120,0.0,0.0,74,0.00,,,0.00,VWS V14.01,2013-10-16 01:39:00,
2013-10-15 21:44:00,52.8,45.1,30.06,ESE,120,0.0,0.0,75,0.00,,,0.00,VWS V14.01,2013-10-16 01:44:00,
2013-10-15 21:49:00,52.6,44.9,30.06,ESE,120,0.0,0.0,75,0.00,,,0.00,VWS V14.01,2013-10-16 01:49:00,
2013-10-15 21:54:00,52.6,44.9,30.06,ESE,120,0.0,0.0,75,0.00,,,0.00,VWS V14.01,2013-10-16 01:54:00,
2013-10-15 21:59:00,52.6,45.3,30.06,ESE,120,0.0,0.0,76,0.00,,,0.00,VWS V14.01,2013-10-16 01:59:00,
2013-10-15 22:04:00,52.6,45.3,30.03,ESE,120,0.0,0.0,76,0.00,,,0.00,VWS V14.01,2013-10-16 02:04:00,
2013-10-15 22:09:00,52.8,45.5,30.03,ESE,120,0.0,0.0,76,0.00,,,0.00,VWS V14.01,2013-10-16 02:09:00,
2013-10-15 22:15:00,53.0,45.6,30.03,ESE,120,0.0,0.0,76,0.00,,,0.00,VWS V14.01,2013-10-16 02:15:00,
2013-10-15 22:20:00,53.3,46.3,30.03,ESE,120,0.0,0.0,77,0.00,,,0.00,VWS V14.01,2013-10-16 02:20:00,
2013-10-15 22:25:00,53.7,46.7,30.03,ESE,120,0.0,0.0,77,0.00,,,0.00,VWS V14.01,2013-10-16 02:25:00,
2013-10-15 22:30:00,53.9,46.8,30.03,ESE,120,0.0,0.0,77,0.00,,,0.00,VWS V14.01,2013-10-16 02:30:00,
2013-10-15 22:35:00,53.9,46.8,30.03,ESE,120,0.0,0.0,77,0.00,,,0.00,VWS V14.01,2013-10-16 02:35:00,
2013-10-15 22:40:00,54.2,47.5,30.03,ESE,120,0.0,0.0,78,0.00,,,0.00,VWS V14.01,2013-10-16 02:40:00,
2013-10-15 22:45:00,54.4,47.7,30.03,ESE,120,0.0,0.0,78,0.00,,,0.00,VWS V14.01,2013-10-16 02:45:00,
2013-10-15 22:50:00,54.6,47.9,30.03,ESE,120,0.0,0.0,78,0.00,,,0.00,VWS V14.01,2013-10-16 02:50:00,
2013-10-15 22:55:00,54.6,47.9,30.03,ESE,120,0.0,0.0,78,0.00,,,0.00,VWS V14.01,2013-10-16 02:55:00,
2013-10-15 23:00:00,54.6,47.9,30.03,ESE,120,0.0,0.0,78,0.00,,,0.00,VWS V14.01,2013-10-16 03:00:00,
2013-10-15 23:05:00,54.4,48.0,30.03,ESE,120,0.0,0.0,79,0.00,,,0.00,VWS V14.01,2013-10-16 03:05:00,
2013-10-15 23:10:00,54.2,47.9,30.03,ESE,120,0.0,0.0,79,0.00,,,0.00,VWS V14.01,2013-10-16 03:10:00,
2013-10-15 23:15:00,54.1,47.7,30.03,ESE,120,0.0,0.0,79,0.00,,,0.00,VWS V14.01,2013-10-16 03:15:00,
2013-10-15 23:20:00,53.9,47.5,30.03,ESE,120,0.0,0.0,79,0.00,,,0.00,VWS V14.01,2013-10-16 03:20:00,
2013-10-15 23:25:00,53.7,47.3,30.00,ESE,120,0.0,0.0,79,0.00,,,0.00,VWS V14.01,2013-10-16 03:25:00,
2013-10-15 23:30:00,53.5,47.2,30.00,ESE,120,0.0,0.0,79,0.00,,,0.00,VWS V14.01,2013-10-16 03:30:00,
2013-10-15 23:35:00,53.5,47.2,30.00,ESE,120,0.0,0.0,79,0.00,,,0.00,VWS V14.01,2013-10-16 03:35:00,
2013-10-15 23:40:00,53.7,47.7,30.00,ESE,120,0.0,0.0,80,0.00,,,0.00,VWS V14.01,2013-10-16 03:40:00,
2013-10-15 23:46:00,53.9,47.9,30.00,ESE,120,0.0,0.0,80,0.00,,,0.00,VWS V14.01,2013-10-16 03:46:00,
2013-10-15 23:51:00,54.1,48.4,30.00,ESE,120,0.0,0.0,81,0.00,,,0.00,VWS V14.01,2013-10-16 03:51:00,
2013-10-15 23:56:00,54.4,48.4,30.00,ESE,120,0.0,0.0,80,0.00,,,0.00,VWS V14.01,2013-10-16 03:56:00,